Time;durP1;ratioP1;P1;durP2;ratioP2;P2;SDS_P1;SDS_P2;PMS_P1;PMS_P2;Temp;Humidity;BMP_temperature;BMP_pressure;BME280_temperature;BME280_humidity;BME280_pressure;Samples;Min_cycle;Max_cycle;Signal;HPM_P1;HPM_P2
2023/08/07 00:02:18;;;;;;;8.13;2.40;;;;;;;13.66;81.66;101488.19;5021542;28;20058;-43
2023/08/07 00:04:45;;;;;;;11.65;2.53;;;;;;;13.65;81.78;101489.38;5033872;28;20136;-43
2023/08/07 00:07:11;;;;;;;6.85;2.67;;;;;;;13.60;81.85;101484.06;5033402;28;20076;-43
2023/08/07 00:09:38;;;;;;;7.93;2.47;;;;;;;13.56;82.10;101482.28;5034096;28;20509;-44
2023/08/07 00:12:05;;;;;;;4.53;1.20;;;;;;;13.51;82.16;101485.31;5033341;28;20103;-42
2023/08/07 00:14:32;;;;;;;5.70;1.45;;;;;;;13.49;82.64;101476.50;5029620;28;20049;-43
2023/08/07 00:16:58;;;;;;;2.60;1.10;;;;;;;13.51;82.46;101486.13;5029910;28;20037;-43
2023/08/07 00:19:25;;;;;;;3.55;1.40;;;;;;;13.49;82.76;101479.28;5033683;28;20148;-44
2023/08/07 00:21:52;;;;;;;4.85;1.60;;;;;;;13.52;82.87;101484.16;5033197;28;20487;-44
2023/08/07 00:24:19;;;;;;;3.88;1.70;;;;;;;13.50;82.79;101478.94;5033546;28;20084;-43
2023/08/07 00:26:46;;;;;;;5.68;1.90;;;;;;;13.50;82.92;101470.59;5033013;28;20538;-43
2023/08/07 00:29:12;;;;;;;3.30;1.58;;;;;;;13.48;82.99;101475.69;5033706;28;20483;-43
2023/08/07 00:31:39;;;;;;;6.93;1.65;;;;;;;13.42;82.84;101477.09;5032917;28;20045;-45
2023/08/07 00:34:06;;;;;;;6.93;1.42;;;;;;;13.42;83.04;101480.66;5033348;28;20060;-43
2023/08/07 00:36:34;;;;;;;3.83;1.05;;;;;;;13.42;82.99;101479.88;5032950;28;20045;-44
2023/08/07 00:39:03;;;;;;;10.45;1.73;;;;;;;13.39;82.96;101483.34;5033460;28;20049;-47
2023/08/07 00:41:30;;;;;;;5.07;1.30;;;;;;;13.37;83.20;101474.50;5032834;28;20087;-44
2023/08/07 00:43:57;;;;;;;4.97;1.42;;;;;;;13.36;83.13;101472.91;5030639;28;20145;-45
2023/08/07 00:46:24;;;;;;;5.55;1.10;;;;;;;13.34;83.20;101472.44;5033046;28;20045;-44
2023/08/07 00:48:52;;;;;;;3.58;1.08;;;;;;;13.35;83.18;101474.06;5040115;28;20037;-45
2023/08/07 00:51:20;;;;;;;2.95;1.27;;;;;;;13.37;83.44;101468.94;5027934;28;20496;-44
2023/08/07 00:53:48;;;;;;;4.72;1.20;;;;;;;13.34;83.58;101464.09;5032563;28;20057;-44
2023/08/07 00:56:15;;;;;;;6.22;1.45;;;;;;;13.36;83.56;101475.69;5032309;28;20041;-45
2023/08/07 00:58:42;;;;;;;2.95;0.88;;;;;;;13.36;83.47;101461.78;5025938;28;20037;-43
2023/08/07 01:01:09;;;;;;;1.77;0.90;;;;;;;13.36;83.75;101464.56;5028928;28;20050;-44
2023/08/07 01:03:35;;;;;;;4.72;1.20;;;;;;;13.36;83.78;101472.91;5026733;28;20041;-44
2023/08/07 01:06:02;;;;;;;5.15;1.10;;;;;;;13.34;83.90;101464.09;5028683;28;20531;-44
2023/08/07 01:08:29;;;;;;;4.45;1.23;;;;;;;13.31;83.75;101462.00;5025760;28;20567;-44
2023/08/07 01:11:23;;;;;;;2.10;0.98;;;;;;;13.24;83.94;101459.78;5031162;28;20137;-44
2023/08/07 01:14:09;;;;;;;3.90;1.58;;;;;;;13.19;84.13;101465.56;5027723;28;20050;-44
2023/08/07 01:16:42;;;;;;;6.40;1.02;;;;;;;13.13;84.50;101457.81;5032067;28;20080;-43
2023/08/07 01:19:19;;;;;;;2.22;1.33;;;;;;;13.12;84.52;101453.41;5030560;28;20072;-44
2023/08/07 01:21:48;;;;;;;5.18;1.35;;;;;;;13.14;84.35;101462.19;5032067;28;20037;-43
2023/08/07 01:24:15;;;;;;;6.00;1.27;;;;;;;13.12;84.20;101459.78;5032794;28;20152;-43
2023/08/07 01:26:46;;;;;;;9.00;2.50;;;;;;;13.09;84.30;101462.44;5032053;28;20053;-43
2023/08/07 01:29:26;;;;;;;3.30;1.20;;;;;;;13.07;84.20;101470.31;5032251;28;20045;-43
2023/08/07 01:31:54;;;;;;;6.13;1.55;;;;;;;13.00;84.11;101459.72;5032122;28;20060;-47
2023/08/07 01:34:23;;;;;;;3.20;1.10;;;;;;;12.94;83.92;101455.53;5031210;28;20061;-43
2023/08/07 01:36:53;;;;;;;5.30;1.15;;;;;;;12.84;84.37;101451.22;5031326;28;20049;-44
2023/08/07 01:39:23;;;;;;;5.38;1.20;;;;;;;12.80;84.46;101460.59;5031867;28;20053;-43
2023/08/07 01:41:50;;;;;;;6.05;1.50;;;;;;;12.79;84.48;101453.41;5031703;28;20053;-44
2023/08/07 01:44:17;;;;;;;6.18;1.25;;;;;;;12.79;84.43;101454.22;5029314;28;20120;-44
2023/08/07 01:46:44;;;;;;;2.92;1.10;;;;;;;12.78;84.53;101454.56;5028425;28;20045;-49
2023/08/07 01:49:10;;;;;;;4.70;1.33;;;;;;;12.74;84.35;101461.94;5027247;28;20053;-49
2023/08/07 01:51:38;;;;;;;2.33;1.20;;;;;;;12.69;84.56;101460.22;5028257;28;20061;-43
2023/08/07 01:54:04;;;;;;;5.57;1.80;;;;;;;12.64;84.61;101460.44;5023768;28;20045;-45
2023/08/07 01:56:31;;;;;;;5.32;1.63;;;;;;;12.59;84.97;101449.53;5023191;28;20030;-45
2023/08/07 01:58:58;;;;;;;4.10;2.15;;;;;;;12.53;85.15;101462.00;5025098;28;20091;-47
2023/08/07 02:01:24;;;;;;;8.20;1.30;;;;;;;12.47;85.40;101454.22;5024889;28;20133;-43
2023/08/07 02:03:53;;;;;;;5.25;1.35;;;;;;;12.42;85.55;101452.44;5025089;28;20147;-48
2023/08/07 02:06:19;;;;;;;4.70;1.75;;;;;;;12.40;85.90;101445.63;5028781;28;20049;-43
2023/08/07 02:08:46;;;;;;;8.52;3.10;;;;;;;12.33;85.86;101434.25;5024740;28;20053;-43
2023/08/07 02:11:13;;;;;;;9.93;3.28;;;;;;;12.28;86.14;101426.97;5026306;28;20072;-44
2023/08/07 02:13:40;;;;;;;9.27;2.65;;;;;;;12.27;86.26;101430.88;5030612;28;20522;-43
2023/08/07 02:16:06;;;;;;;5.88;1.70;;;;;;;12.25;86.37;101430.41;5031703;28;20041;-45
2023/08/07 02:18:33;;;;;;;8.98;1.88;;;;;;;12.25;86.48;101421.25;5030888;28;20055;-44
2023/08/07 02:21:00;;;;;;;4.20;1.55;;;;;;;12.21;86.37;101424.72;5031457;28;20038;-43
2023/08/07 02:23:28;;;;;;;7.28;2.45;;;;;;;12.12;86.55;101418.44;5031188;28;20045;-43
2023/08/07 02:25:55;;;;;;;5.93;1.60;;;;;;;12.10;86.84;101419.91;5031082;28;20049;-43
2023/08/07 02:28:22;;;;;;;7.47;1.60;;;;;;;12.10;86.91;101439.31;5031456;28;20056;-43
2023/08/07 02:30:51;;;;;;;5.20;1.83;;;;;;;12.06;87.17;101430.06;5031015;28;20104;-43
2023/08/07 02:33:17;;;;;;;7.15;1.95;;;;;;;12.03;87.15;101416.88;5026923;28;20442;-47
2023/08/07 02:35:44;;;;;;;6.38;1.48;;;;;;;12.00;87.31;101420.31;5027871;28;20519;-43
2023/08/07 02:38:11;;;;;;;5.13;1.58;;;;;;;12.00;87.28;101420.31;5023451;28;20490;-43
2023/08/07 02:40:38;;;;;;;7.03;2.25;;;;;;;12.02;87.43;101418.03;5028584;28;20444;-43
2023/08/07 02:43:04;;;;;;;3.72;1.65;;;;;;;12.00;87.37;101409.22;5030746;28;20045;-44
2023/08/07 02:45:31;;;;;;;7.55;2.10;;;;;;;11.93;87.58;101400.63;5017741;28;20107;-46
2023/08/07 02:47:58;;;;;;;5.93;2.10;;;;;;;11.91;87.83;101389.06;5025094;28;20145;-43
2023/08/07 02:50:27;;;;;;;9.55;2.00;;;;;;;11.90;87.85;101379.91;5020548;28;20049;-48
2023/08/07 02:52:54;;;;;;;4.10;1.85;;;;;;;11.87;88.10;101388.09;5024321;28;20041;-44
2023/08/07 02:55:20;;;;;;;5.80;1.90;;;;;;;11.85;88.18;101396.78;5030937;28;20049;-43
2023/08/07 02:57:49;;;;;;;6.78;1.80;;;;;;;11.84;88.22;101397.91;5027805;28;20095;-43
2023/08/07 03:00:16;;;;;;;12.40;2.45;;;;;;;11.82;88.38;101402.19;5029758;28;20552;-44
2023/08/07 03:02:43;;;;;;;10.85;2.10;;;;;;;11.78;88.55;101407.56;5027891;28;20042;-43
2023/08/07 03:05:10;;;;;;;6.85;2.58;;;;;;;11.82;88.62;101414.09;5029716;28;20045;-43
2023/08/07 03:07:37;;;;;;;9.85;2.30;;;;;;;11.79;88.46;101408.41;5027627;28;20037;-43
2023/08/07 03:10:04;;;;;;;5.50;2.17;;;;;;;11.78;88.55;101417.88;5028884;28;20385;-43
2023/08/07 03:12:32;;;;;;;4.25;1.52;;;;;;;11.76;88.76;101420.97;5027365;28;20124;-44
2023/08/07 03:14:58;;;;;;;5.85;1.73;;;;;;;11.75;88.69;101413.81;5029119;28;20495;-43
2023/08/07 03:17:26;;;;;;;6.70;2.38;;;;;;;11.73;88.54;101418.09;5026684;28;20052;-44
2023/08/07 03:19:53;;;;;;;6.35;2.05;;;;;;;11.71;88.55;101406.50;5028057;28;20037;-44
2023/08/07 03:22:20;;;;;;;4.53;1.60;;;;;;;11.66;88.81;101412.19;5029529;28;20470;-43
2023/08/07 03:24:48;;;;;;;4.00;1.58;;;;;;;11.61;88.70;101414.03;5027773;28;20581;-43
2023/08/07 03:27:15;;;;;;;4.82;1.80;;;;;;;11.60;88.78;101412.41;5028355;28;20045;-43
2023/08/07 03:29:42;;;;;;;8.07;1.55;;;;;;;11.57;88.92;101409.47;5028682;28;20073;-43
2023/08/07 03:32:15;;;;;;;6.25;2.13;;;;;;;11.54;89.21;101410.19;5027505;28;20141;-43
2023/08/07 03:34:42;;;;;;;4.22;1.85;;;;;;;11.54;89.26;101408.19;5029207;28;20127;-43
2023/08/07 03:37:09;;;;;;;10.50;3.50;;;;;;;11.51;89.33;101397.78;5026024;28;20046;-43
2023/08/07 03:39:35;;;;;;;3.15;2.05;;;;;;;11.47;89.57;101396.81;5030006;28;20053;-43
2023/08/07 03:42:02;;;;;;;3.95;2.05;;;;;;;11.46;89.70;101395.19;5031269;28;20045;-43
2023/08/07 03:44:33;;;;;;;3.53;2.00;;;;;;;11.44;89.70;101403.03;5030745;28;20049;-43
2023/08/07 03:46:59;;;;;;;5.18;1.45;;;;;;;11.46;89.90;101397.97;5031818;28;20045;-43
2023/08/07 03:49:26;;;;;;;2.95;1.83;;;;;;;11.46;89.94;101386.09;5033114;28;20038;-43
2023/08/07 03:51:53;;;;;;;2.17;1.30;;;;;;;11.46;90.09;101388.84;5032774;28;20444;-43
2023/08/07 03:54:20;;;;;;;5.97;1.75;;;;;;;11.46;90.27;101388.84;5032483;28;20487;-43
2023/08/07 03:56:46;;;;;;;5.90;1.92;;;;;;;11.46;90.34;101378.56;5033129;28;20045;-44
2023/08/07 03:59:13;;;;;;;3.50;1.30;;;;;;;11.46;90.37;101375.00;5033348;28;20760;-43
2023/08/07 04:01:40;;;;;;;6.30;1.75;;;;;;;11.47;90.38;101374.66;5031524;28;20081;-44
2023/08/07 04:04:07;;;;;;;5.13;2.13;;;;;;;11.47;90.62;101374.66;5030614;28;20048;-43
2023/08/07 04:06:33;;;;;;;5.68;1.50;;;;;;;11.51;90.82;101364.53;5027984;28;20052;-43
2023/08/07 04:09:02;;;;;;;3.63;1.60;;;;;;;11.54;90.99;101386.00;5026820;28;20081;-44
2023/08/07 04:11:30;;;;;;;9.38;2.08;;;;;;;11.55;90.94;101379.31;5030392;28;20046;-44
2023/08/07 04:13:57;;;;;;;2.92;1.35;;;;;;;11.52;90.92;101382.75;5014531;28;20037;-44
2023/08/07 04:16:24;;;;;;;7.57;1.60;;;;;;;11.44;91.09;101378.09;5023215;28;20414;-43
2023/08/07 04:18:51;;;;;;;7.43;1.70;;;;;;;11.43;91.27;101376.47;5026904;28;20045;-43
2023/08/07 04:21:18;;;;;;;5.00;1.48;;;;;;;11.45;91.63;101365.84;5027392;28;20403;-44
2023/08/07 04:23:45;;;;;;;3.90;1.70;;;;;;;11.46;91.40;101361.91;5031137;28;20065;-44
2023/08/07 04:26:11;;;;;;;7.72;1.50;;;;;;;11.41;91.62;101356.56;5029152;28;20061;-44
2023/08/07 04:28:38;;;;;;;4.75;2.20;;;;;;;11.38;91.74;101376.69;5023471;28;20057;-43
2023/08/07 04:31:05;;;;;;;4.60;1.50;;;;;;;11.38;91.70;101371.13;5030024;28;20045;-44
2023/08/07 04:33:31;;;;;;;8.32;1.92;;;;;;;11.41;91.67;101375.97;5029116;28;20464;-44
2023/08/07 04:35:58;;;;;;;2.60;1.60;;;;;;;11.45;91.82;101384.44;5029990;28;20053;-43
2023/08/07 04:38:25;;;;;;;2.08;1.40;;;;;;;11.43;91.77;101384.78;5029833;28;20108;-47
2023/08/07 04:40:52;;;;;;;5.72;2.25;;;;;;;11.45;91.99;101388.03;5024593;28;20555;-45
2023/08/07 04:43:20;;;;;;;4.43;1.20;;;;;;;11.44;92.03;101380.84;5031453;28;20076;-45
2023/08/07 04:45:47;;;;;;;2.25;1.38;;;;;;;11.45;92.04;101379.72;5029446;28;20049;-44
2023/08/07 04:48:15;;;;;;;5.80;1.45;;;;;;;11.46;92.15;101384.09;5028433;28;20041;-43
2023/08/07 04:50:42;;;;;;;6.25;1.23;;;;;;;11.46;92.04;101381.31;5030374;28;20060;-43
2023/08/07 04:53:09;;;;;;;5.53;1.40;;;;;;;11.45;92.46;101384.44;5029046;28;20060;-43
2023/08/07 04:55:36;;;;;;;4.22;1.30;;;;;;;11.43;92.42;101384.78;5029654;28;20492;-53
2023/08/07 04:58:03;;;;;;;3.80;1.00;;;;;;;11.39;92.55;101375.50;5030322;28;20045;-43
2023/08/07 05:00:29;;;;;;;4.85;1.40;;;;;;;11.41;92.57;101370.44;5031903;28;20041;-51
2023/08/07 05:02:56;;;;;;;5.32;1.33;;;;;;;11.39;92.71;101378.28;5025105;28;20497;-43
2023/08/07 05:05:23;;;;;;;4.22;1.60;;;;;;;11.40;92.91;101376.31;5029147;28;20041;-45
2023/08/07 05:07:50;;;;;;;3.92;1.30;;;;;;;11.39;92.86;101372.72;5029680;28;20052;-43
2023/08/07 05:10:18;;;;;;;2.15;1.30;;;;;;;11.42;93.01;101385.94;5024020;28;20049;-43
2023/08/07 05:12:44;;;;;;;2.53;1.23;;;;;;;11.42;92.98;101377.63;5029981;28;20049;-44
2023/08/07 05:15:11;;;;;;;1.48;1.13;;;;;;;11.46;93.09;101380.53;5028410;28;20073;-44
2023/08/07 05:17:38;;;;;;;6.30;1.60;;;;;;;11.49;93.13;101371.56;5032669;28;20049;-44
2023/08/07 05:20:07;;;;;;;2.28;1.20;;;;;;;11.53;93.20;101386.34;5030382;28;20515;-44
2023/08/07 05:22:33;;;;;;;5.35;1.10;;;;;;;11.56;93.26;101382.91;5032343;28;20526;-42
2023/08/07 05:25:00;;;;;;;3.40;1.50;;;;;;;11.60;93.49;101378.31;5032279;28;20062;-43
2023/08/07 05:27:28;;;;;;;3.30;1.42;;;;;;;11.63;93.48;101372.91;5032448;28;20076;-44
2023/08/07 05:29:54;;;;;;;1.45;1.02;;;;;;;11.68;93.61;101369.13;5031539;28;20045;-43
2023/08/07 05:32:21;;;;;;;5.10;0.95;;;;;;;11.76;93.55;101368.28;5031165;28;20484;-44
2023/08/07 05:34:48;;;;;;;2.35;0.90;;;;;;;11.79;93.67;101375.91;5029109;28;20067;-51
2023/08/07 05:37:15;;;;;;;5.25;1.15;;;;;;;11.81;93.70;101372.81;5029756;28;20128;-43
2023/08/07 05:39:41;;;;;;;4.15;1.17;;;;;;;11.81;93.73;101370.84;5029683;28;20042;-43
2023/08/07 05:42:10;;;;;;;1.70;1.33;;;;;;;11.87;93.87;101377.00;5028746;28;20087;-42
2023/08/07 05:44:36;;;;;;;2.45;1.00;;;;;;;11.89;93.81;101380.25;5022597;28;20132;-45
2023/08/07 05:47:04;;;;;;;1.50;1.27;;;;;;;11.92;93.64;101379.56;5030329;28;20088;-43
2023/08/07 05:49:31;;;;;;;7.50;1.35;;;;;;;11.96;93.95;101386.09;5029489;28;20057;-45
2023/08/07 05:51:57;;;;;;;2.15;1.00;;;;;;;11.98;93.92;101389.31;5030421;28;20038;-43
2023/08/07 05:54:25;;;;;;;3.65;1.00;;;;;;;12.00;93.94;101387.00;5027909;28;20148;-44
2023/08/07 05:56:53;;;;;;;3.45;1.40;;;;;;;12.06;94.00;101380.94;5028171;28;20061;-45
2023/08/07 05:59:19;;;;;;;4.20;1.00;;;;;;;12.13;94.12;101380.38;5025183;28;20056;-45
2023/08/07 06:01:46;;;;;;;2.30;0.88;;;;;;;12.16;94.00;101379.69;5026947;28;20099;-43
2023/08/07 06:04:13;;;;;;;4.28;1.35;;;;;;;12.20;93.92;101375.88;5025850;28;20056;-45
2023/08/07 06:06:42;;;;;;;3.83;1.35;;;;;;;12.26;94.01;101379.25;5026121;28;20128;-43
2023/08/07 06:09:09;;;;;;;3.25;0.95;;;;;;;12.30;93.93;101366.34;5030534;28;20056;-46
2023/08/07 06:11:36;;;;;;;4.45;1.80;;;;;;;12.34;94.12;101375.59;5023808;28;20053;-44
2023/08/07 06:14:05;;;;;;;4.57;1.08;;;;;;;12.38;93.86;101368.22;5026390;28;20950;-43
2023/08/07 06:16:32;;;;;;;4.22;1.30;;;;;;;12.43;94.02;101364.41;5024088;28;20041;-44
2023/08/07 06:18:59;;;;;;;3.50;1.00;;;;;;;12.52;94.05;101370.69;5028931;28;20045;-44
2023/08/07 06:21:28;;;;;;;7.55;1.65;;;;;;;12.56;93.90;101379.94;5028944;28;20041;-43
2023/08/07 06:23:55;;;;;;;4.10;1.10;;;;;;;12.62;94.08;101371.06;5027315;28;20041;-43
2023/08/07 06:26:23;;;;;;;7.43;1.30;;;;;;;12.69;94.08;101364.94;5026607;28;20057;-44
2023/08/07 06:28:50;;;;;;;2.47;1.50;;;;;;;12.76;94.07;101368.75;5027620;28;20049;-43
2023/08/07 06:31:18;;;;;;;1.25;1.00;;;;;;;12.82;94.10;101363.78;5025400;28;20037;-43
2023/08/07 06:33:45;;;;;;;2.15;1.40;;;;;;;12.88;93.77;101367.16;5025941;28;20040;-44
2023/08/07 06:36:11;;;;;;;4.35;1.35;;;;;;;12.91;93.90;101372.03;5023474;28;20128;-43
2023/08/07 06:38:39;;;;;;;1.15;0.80;;;;;;;12.91;93.72;101372.03;5026103;28;20145;-43
2023/08/07 06:41:06;;;;;;;4.82;0.80;;;;;;;12.91;93.69;101370.06;5028739;28;20049;-43
2023/08/07 06:43:34;;;;;;;4.13;1.05;;;;;;;12.91;93.76;101378.41;5023192;28;20060;-43
2023/08/07 06:46:01;;;;;;;3.85;1.20;;;;;;;12.97;93.75;101376.22;5026604;28;20411;-43
2023/08/07 06:48:28;;;;;;;3.45;1.98;;;;;;;13.02;93.55;101364.88;5024045;28;20050;-42
2023/08/07 06:50:54;;;;;;;6.45;1.23;;;;;;;13.06;93.66;101369.38;5026897;28;20041;-43
2023/08/07 06:53:23;;;;;;;2.13;1.30;;;;;;;13.15;93.51;101363.75;5030431;28;20511;-43
2023/08/07 06:55:51;;;;;;;3.20;1.10;;;;;;;13.21;93.21;101365.16;5031086;28;20534;-43
2023/08/07 06:58:21;;;;;;;4.15;1.48;;;;;;;13.25;93.54;101363.28;5029748;28;20475;-43
2023/08/07 07:00:49;;;;;;;7.82;1.10;;;;;;;13.29;93.08;101372.56;5030880;28;20388;-43
2023/08/07 07:03:16;;;;;;;2.80;1.15;;;;;;;13.30;93.09;101365.81;5030898;28;20423;-43
2023/08/07 07:05:44;;;;;;;4.63;0.98;;;;;;;13.31;93.10;101373.03;5022652;28;20143;-45
2023/08/07 07:08:11;;;;;;;3.13;0.95;;;;;;;13.32;93.20;101378.22;5028662;28;20444;-44
2023/08/07 07:10:39;;;;;;;8.75;1.98;;;;;;;13.33;93.04;101373.47;5029195;28;20132;-44
2023/08/07 07:13:07;;;;;;;2.47;0.93;;;;;;;13.32;93.00;101378.22;5029096;28;20045;-43
2023/08/07 07:15:35;;;;;;;4.18;1.00;;;;;;;13.33;92.92;101373.47;5028846;28;20060;-43
2023/08/07 07:18:02;;;;;;;5.63;0.95;;;;;;;13.36;92.96;101378.34;5021981;28;20480;-43
2023/08/07 07:20:30;;;;;;;5.20;1.52;;;;;;;13.40;93.04;101373.69;5031564;28;20060;-43
2023/08/07 07:22:56;;;;;;;6.88;0.90;;;;;;;13.45;93.05;101370.66;5032783;28;20483;-42
2023/08/07 07:25:24;;;;;;;2.25;0.80;;;;;;;13.52;92.82;101372.88;5031717;28;20056;-43
2023/08/07 07:27:51;;;;;;;2.67;0.75;;;;;;;13.58;92.53;101368.69;5032785;28;20049;-43
2023/08/07 07:30:17;;;;;;;3.08;0.98;;;;;;;13.60;92.59;101361.63;5030369;28;20045;-44
2023/08/07 07:32:46;;;;;;;1.30;0.70;;;;;;;13.64;92.42;101361.72;5034180;28;20446;-43
2023/08/07 07:35:13;;;;;;;3.00;1.10;;;;;;;13.69;92.59;101362.28;5034348;28;20049;-44
2023/08/07 07:37:39;;;;;;;3.60;0.80;;;;;;;13.76;92.43;101370.06;5029616;28;20492;-43
2023/08/07 07:40:08;;;;;;;3.30;0.65;;;;;;;13.82;92.49;101366.66;5033067;28;20499;-43
2023/08/07 07:42:35;;;;;;;2.60;1.15;;;;;;;13.91;92.23;101378.47;5031979;28;20038;-43
2023/08/07 07:45:02;;;;;;;2.05;0.82;;;;;;;13.91;91.95;101377.66;5032937;28;20041;-44
2023/08/07 07:47:29;;;;;;;3.50;1.20;;;;;;;13.91;91.70;101361.78;5034294;28;20053;-44
2023/08/07 07:50:08;;;;;;;2.80;0.70;;;;;;;13.92;91.55;101379.28;5030668;28;20044;-47
2023/08/07 07:52:35;;;;;;;2.75;0.55;;;;;;;13.92;91.40;101373.72;5030981;28;20057;-44
2023/08/07 07:55:02;;;;;;;1.80;0.82;;;;;;;13.97;91.57;101371.50;5029542;28;20069;-44
2023/08/07 07:57:29;;;;;;;0.68;0.60;;;;;;;14.06;91.42;101376.13;5030742;28;20055;-46
2023/08/07 07:59:56;;;;;;;2.42;0.80;;;;;;;14.15;91.42;101373.97;5028398;28;20474;-44
2023/08/07 08:02:26;;;;;;;2.92;0.60;;;;;;;14.26;91.22;101373.13;5029688;28;20041;-47
2023/08/07 08:04:52;;;;;;;3.88;0.95;;;;;;;14.30;90.67;101374.03;5027655;28;20120;-44
2023/08/07 08:07:19;;;;;;;5.00;0.82;;;;;;;14.34;90.56;101376.97;5030915;28;20053;-44
2023/08/07 08:09:47;;;;;;;1.67;0.77;;;;;;;14.41;90.43;101379.94;5029636;28;20056;-45
2023/08/07 08:12:13;;;;;;;6.20;1.13;;;;;;;14.48;90.15;101380.94;5033820;28;20435;-44
2023/08/07 08:14:40;;;;;;;1.92;0.80;;;;;;;14.50;89.90;101369.44;5030892;28;20044;-46
2023/08/07 08:17:27;;;;;;;2.15;0.55;;;;;;;14.51;89.67;101373.84;5027257;28;20404;-43
2023/08/07 08:19:54;;;;;;;1.95;0.70;;;;;;;14.51;89.50;101369.09;5031542;28;20133;-43
2023/08/07 08:22:20;;;;;;;4.30;0.50;;;;;;;14.61;89.33;101374.13;5031254;28;20042;-44
2023/08/07 08:24:47;;;;;;;2.97;0.75;;;;;;;14.85;89.27;101373.16;5032798;28;20594;-45
2023/08/07 08:27:14;;;;;;;1.38;0.47;;;;;;;15.05;88.59;101371.28;5032072;28;20045;-44
2023/08/07 08:29:41;;;;;;;0.55;0.50;;;;;;;15.17;88.00;101362.81;5029613;28;20053;-44
2023/08/07 08:32:09;;;;;;;4.25;1.20;;;;;;;15.35;87.89;101357.69;5029901;28;20484;-43
2023/08/07 08:34:36;;;;;;;2.45;1.27;;;;;;;15.56;87.71;101352.63;5033548;28;20060;-46
2023/08/07 08:37:05;;;;;;;1.67;0.80;;;;;;;15.74;87.17;101348.25;5029104;28;20044;-49
2023/08/07 08:39:33;;;;;;;3.75;0.60;;;;;;;15.77;86.46;101353.94;5030857;28;20484;-43
2023/08/07 08:41:59;;;;;;;2.78;0.60;;;;;;;15.79;86.21;101353.53;5030304;28;20049;-44
2023/08/07 08:44:31;;;;;;;4.38;1.08;;;;;;;15.92;86.20;101348.63;5029195;28;20503;-44
2023/08/07 08:47:00;;;;;;;3.20;0.43;;;;;;;16.01;85.64;101355.63;5029855;28;20103;-44
2023/08/07 08:49:32;;;;;;;4.53;0.55;;;;;;;16.04;85.47;101354.91;5029933;28;20049;-44
2023/08/07 08:52:00;;;;;;;1.67;0.68;;;;;;;16.12;84.64;101351.06;5032008;28;20099;-44
2023/08/07 08:54:27;;;;;;;2.45;0.65;;;;;;;16.23;84.12;101343.69;5031624;28;20037;-44
2023/08/07 08:56:56;;;;;;;2.85;0.50;;;;;;;16.35;83.45;101337.16;5027099;28;20049;-48
2023/08/07 08:59:23;;;;;;;1.95;0.40;;;;;;;16.43;82.87;101348.09;5030056;28;20076;-44
2023/08/07 09:01:51;;;;;;;1.92;0.57;;;;;;;16.51;82.26;101342.63;5031483;28;20468;-43
2023/08/07 09:04:18;;;;;;;2.45;0.63;;;;;;;16.57;81.92;101344.00;5028439;28;20132;-44
2023/08/07 09:06:47;;;;;;;2.03;0.40;;;;;;;16.61;81.76;101342.06;5028065;28;20064;-44
2023/08/07 09:09:16;;;;;;;2.08;1.05;;;;;;;16.70;81.30;101339.84;5032398;28;20065;-45
2023/08/07 09:11:44;;;;;;;2.97;0.40;;;;;;;16.84;80.76;101340.06;5032463;28;20068;-44
2023/08/07 09:14:16;;;;;;;0.82;0.47;;;;;;;16.99;80.47;101336.34;5031169;28;20064;-45
2023/08/07 09:16:48;;;;;;;0.95;0.68;;;;;;;17.10;80.14;101331.75;5025566;28;20065;-45
2023/08/07 09:19:15;;;;;;;4.82;1.42;;;;;;;17.22;79.43;101336.31;5027697;28;20041;-44
2023/08/07 09:21:42;;;;;;;0.50;0.30;;;;;;;17.22;78.88;101331.53;5031307;28;20395;-44
2023/08/07 09:24:09;;;;;;;1.05;0.40;;;;;;;17.22;78.35;101334.31;5030755;28;20128;-44
2023/08/07 09:26:37;;;;;;;3.95;0.57;;;;;;;17.20;77.81;101338.69;5023117;28;20057;-44
2023/08/07 09:29:04;;;;;;;1.63;0.40;;;;;;;17.14;77.58;101327.00;5029556;28;20045;-49
2023/08/07 09:31:31;;;;;;;0.38;0.38;;;;;;;17.07;77.26;101329.69;5031802;28;20057;-46
2023/08/07 09:34:03;;;;;;;1.77;0.40;;;;;;;17.00;77.24;101321.16;5029259;28;20418;-43
2023/08/07 09:36:34;;;;;;;2.70;0.40;;;;;;;16.97;76.87;101333.13;5031668;28;20095;-51
2023/08/07 09:39:02;;;;;;;2.83;0.52;;;;;;;16.88;76.62;101318.56;5018861;28;20527;-44
2023/08/07 09:41:30;;;;;;;2.17;0.38;;;;;;;16.80;76.42;101334.44;5026177;28;20412;-44
2023/08/07 09:43:58;;;;;;;0.65;0.30;;;;;;;16.70;76.05;101323.06;5027725;28;20059;-44
2023/08/07 09:46:26;;;;;;;0.43;0.30;;;;;;;16.61;75.99;101330.88;5030432;28;20057;-43
2023/08/07 09:48:57;;;;;;;0.88;0.30;;;;;;;16.63;76.14;101322.91;5031823;28;20045;-44
2023/08/07 09:51:24;;;;;;;1.05;0.30;;;;;;;16.67;75.94;101330.22;5028788;28;20602;-44
2023/08/07 09:53:51;;;;;;;0.40;0.40;;;;;;;16.69;75.67;101321.44;5028297;28;20099;-50
2023/08/07 09:56:18;;;;;;;0.95;0.20;;;;;;;16.77;75.43;101328.75;5030467;28;20404;-42
2023/08/07 09:58:48;;;;;;;0.35;0.15;;;;;;;16.84;75.37;101318.50;5031462;28;20132;-44
2023/08/07 10:01:18;;;;;;;3.05;0.52;;;;;;;17.03;74.70;101320.41;5027412;28;20088;-43
2023/08/07 10:03:46;;;;;;;0.93;0.55;;;;;;;17.22;74.45;101311.94;5022930;28;20096;-47
2023/08/07 10:06:14;;;;;;;0.90;0.40;;;;;;;17.42;74.29;101313.44;5029405;28;20132;-45
2023/08/07 10:08:42;;;;;;;1.10;0.30;;;;;;;17.56;73.94;101310.06;5031052;28;20041;-43
2023/08/07 10:11:10;;;;;;;1.13;0.45;;;;;;;17.59;73.49;101315.72;5031574;28;20040;-43
2023/08/07 10:13:38;;;;;;;1.50;0.50;;;;;;;17.66;73.51;101314.22;5029625;28;20046;-46
2023/08/07 10:16:06;;;;;;;0.75;0.65;;;;;;;17.78;73.46;101317.56;5027294;28;20490;-43
2023/08/07 10:18:35;;;;;;;2.28;0.55;;;;;;;17.88;72.94;101310.47;5030873;28;20045;-44
2023/08/07 10:21:04;;;;;;;0.90;0.30;;;;;;;17.94;72.40;101306.16;5020627;28;20073;-45
2023/08/07 10:23:35;;;;;;;0.75;0.40;;;;;;;18.00;72.42;101313.06;5029883;28;20052;-43
2023/08/07 10:26:08;;;;;;;1.17;0.40;;;;;;;18.04;72.05;101313.88;5031158;28;20058;-43
2023/08/07 10:28:39;;;;;;;1.20;0.30;;;;;;;18.03;71.81;101315.09;5030650;28;20071;-43
2023/08/07 10:31:10;;;;;;;0.65;0.20;;;;;;;18.11;71.86;101313.97;5029514;28;20046;-47
2023/08/07 10:33:38;;;;;;;;;;;;;;;18.04;71.79;101306.28;5028980;28;20037;-50
2023/08/07 10:36:10;;;;;;;0.85;0.20;;;;;;;18.02;71.49;101317.09;5030834;28;19967;-44
2023/08/07 10:38:37;;;;;;;1.38;0.40;;;;;;;18.02;71.74;101313.47;5030821;28;20555;-43
2023/08/07 10:41:08;;;;;;;0.45;0.30;;;;;;;17.98;71.39;101316.22;5031357;28;20046;-43
2023/08/07 10:43:43;;;;;;;1.00;0.20;;;;;;;17.88;71.29;101304.88;5017733;28;20445;-43
2023/08/07 10:46:15;;;;;;;0.88;0.60;;;;;;;17.77;70.97;101309.53;5030585;28;20045;-45
2023/08/07 10:48:48;;;;;;;2.42;0.32;;;;;;;17.76;70.65;101297.53;5030643;28;20046;-44
2023/08/07 10:51:17;;;;;;;1.60;0.20;;;;;;;17.77;70.37;101295.53;5029450;28;20049;-43
2023/08/07 10:53:48;;;;;;;3.67;0.43;;;;;;;17.86;70.59;101296.06;5028733;28;20399;-45
2023/08/07 10:56:32;;;;;;;1.85;0.38;;;;;;;17.84;70.29;101293.66;5026668;28;20499;-43
2023/08/07 10:59:08;;;;;;;1.67;0.80;;;;;;;17.77;70.49;101287.13;5030885;28;20046;-44
2023/08/07 11:01:34;;;;;;;0.60;0.43;;;;;;;17.67;70.53;101293.41;5030939;28;20049;-44
2023/08/07 11:04:13;;;;;;;0.90;0.22;;;;;;;17.55;70.96;101295.25;5030259;28;20467;-44
2023/08/07 11:06:41;;;;;;;1.00;0.30;;;;;;;17.49;70.90;101293.94;5030627;28;20069;-44
2023/08/07 11:09:09;;;;;;;0.70;0.30;;;;;;;17.43;70.84;101301.06;5030390;28;20545;-43
2023/08/07 11:11:39;;;;;;;0.22;0.22;;;;;;;17.32;71.17;101300.09;5030579;28;20045;-43
2023/08/07 11:14:09;;;;;;;0.40;0.30;;;;;;;17.16;71.08;101293.03;5028559;28;20381;-43
2023/08/07 11:16:36;;;;;;;0.85;0.52;;;;;;;16.95;71.10;101296.31;5030425;28;20080;-44
2023/08/07 11:19:04;;;;;;;0.88;0.63;;;;;;;16.77;71.62;101300.81;5030377;28;20695;-44
2023/08/07 11:21:32;;;;;;;0.28;0.20;;;;;;;16.59;71.97;101296.91;5030639;28;20045;-43
2023/08/07 11:24:01;;;;;;;0.85;0.50;;;;;;;16.45;72.35;101292.63;5030425;28;20045;-43
2023/08/07 11:26:28;;;;;;;0.80;0.30;;;;;;;16.38;72.85;101300.91;5030144;28;20447;-44
2023/08/07 11:28:55;;;;;;;1.90;0.65;;;;;;;16.39;73.15;101285.72;5030359;28;20084;-43